createdAt,value
2023-01-17T00:01:44.677Z,21.00
2023-01-17T00:04:47.506Z,20.97
2023-01-17T00:10:42.421Z,20.92
2023-01-17T00:13:37.827Z,20.94
2023-01-17T00:16:23.017Z,20.94
2023-01-17T00:19:26.775Z,20.92
2023-01-17T00:22:39.451Z,20.93
2023-01-17T00:25:56.631Z,20.93
2023-01-17T00:28:43.421Z,20.93
2023-01-17T00:31:28.689Z,20.91
2023-01-17T00:34:14.089Z,20.89
2023-01-17T00:36:59.375Z,20.90
2023-01-17T00:39:44.814Z,20.88
2023-01-17T00:42:30.418Z,20.88
2023-01-17T00:45:34.227Z,20.87
2023-01-17T00:48:38.010Z,20.88
2023-01-17T00:51:42.336Z,20.87
2023-01-17T00:54:46.002Z,20.84
2023-01-17T00:57:50.204Z,20.83
2023-01-17T01:00:53.970Z,20.80
2023-01-17T01:03:57.671Z,20.76
2023-01-17T01:07:01.354Z,20.76
2023-01-17T01:10:05.165Z,20.75
2023-01-17T01:13:09.079Z,20.75
2023-01-17T01:16:12.934Z,20.75
2023-01-17T01:25:25.255Z,20.74
2023-01-17T01:28:31.614Z,20.73
2023-01-17T01:31:35.780Z,20.75
2023-01-17T01:34:20.735Z,20.75
2023-01-17T01:37:06.279Z,20.75
2023-01-17T01:39:51.489Z,20.74
2023-01-17T01:42:36.900Z,20.75
2023-01-17T01:45:32.692Z,20.74
2023-01-17T01:48:33.821Z,20.73
2023-01-17T01:51:24.023Z,20.73
2023-01-17T01:54:15.305Z,20.72
2023-01-17T01:57:03.684Z,20.73
2023-01-17T01:59:54.727Z,20.73
2023-01-17T02:02:42.994Z,20.73
2023-01-17T02:05:28.728Z,20.72
2023-01-17T02:08:20.544Z,20.70
2023-01-17T02:11:06.950Z,20.70
2023-01-17T02:13:52.353Z,20.71
2023-01-17T02:16:46.554Z,20.69
2023-01-17T02:20:11.906Z,20.69
2023-01-17T02:23:20.225Z,20.69
2023-01-17T02:26:05.630Z,20.68
2023-01-17T02:29:11.581Z,20.68
2023-01-17T02:32:38.039Z,20.68
2023-01-17T02:36:04.167Z,20.68
2023-01-17T02:39:05.181Z,20.68
2023-01-17T02:42:19.743Z,20.69
2023-01-17T02:45:05.687Z,20.68
2023-01-17T02:47:51.042Z,20.69
2023-01-17T02:51:15.177Z,20.69
2023-01-17T02:54:06.578Z,20.69
2023-01-17T02:57:03.579Z,20.68
2023-01-17T03:00:01.321Z,20.68
2023-01-17T03:03:02.202Z,20.66
2023-01-17T03:05:58.451Z,20.67
2023-01-17T03:08:45.937Z,20.67
2023-01-17T03:11:31.576Z,20.68
2023-01-17T03:14:16.839Z,20.67
2023-01-17T03:17:02.171Z,20.66
2023-01-17T03:19:47.407Z,20.65
2023-01-17T03:22:32.635Z,20.64
2023-01-17T03:25:17.896Z,20.64
2023-01-17T03:28:03.461Z,20.63
2023-01-17T03:30:49.043Z,20.63
2023-01-17T03:33:34.172Z,20.63
2023-01-17T03:36:20.349Z,20.63
2023-01-17T03:39:05.487Z,20.63
2023-01-17T03:41:51.052Z,20.64
2023-01-17T03:44:37.595Z,20.63
2023-01-17T03:47:22.841Z,20.64
2023-01-17T03:50:08.718Z,20.64
2023-01-17T03:52:54.056Z,20.62
2023-01-17T03:55:39.259Z,20.63
2023-01-17T03:58:24.669Z,20.62
2023-01-17T04:01:10.951Z,20.65
2023-01-17T04:03:56.297Z,20.65
2023-01-17T04:06:42.501Z,20.65
2023-01-17T04:09:27.939Z,20.64
2023-01-17T04:12:13.370Z,20.65
2023-01-17T04:14:58.658Z,20.64
2023-01-17T04:17:44.006Z,20.64
2023-01-17T04:20:33.273Z,20.62
2023-01-17T04:23:18.869Z,20.62
2023-01-17T04:26:04.615Z,20.64
2023-01-17T04:28:50.140Z,20.62
2023-01-17T04:31:35.493Z,20.61
2023-01-17T04:34:20.879Z,20.61
2023-01-17T04:37:06.061Z,20.61
2023-01-17T04:39:51.353Z,20.60
2023-01-17T04:42:37.192Z,20.60
2023-01-17T04:45:22.344Z,20.58
2023-01-17T04:48:08.863Z,20.57
2023-01-17T04:51:01.372Z,20.57
2023-01-17T04:53:46.491Z,20.59
2023-01-17T04:56:31.935Z,20.67
2023-01-17T04:59:17.279Z,20.69
2023-01-17T05:02:02.850Z,20.72
2023-01-17T05:04:49.577Z,20.76
2023-01-17T05:07:35.796Z,20.82
2023-01-17T05:10:22.037Z,20.84
2023-01-17T05:13:07.475Z,20.89
2023-01-17T05:15:52.794Z,20.95
2023-01-17T05:18:38.238Z,20.94
2023-01-17T05:21:23.926Z,20.94
2023-01-17T05:24:09.204Z,20.95
2023-01-17T05:26:54.879Z,20.95
2023-01-17T05:29:40.616Z,20.96
2023-01-17T05:32:26.174Z,20.98
2023-01-17T05:35:11.454Z,21.00
2023-01-17T05:37:56.943Z,21.02
2023-01-17T05:40:42.274Z,21.02
2023-01-17T05:43:28.438Z,21.03
2023-01-17T05:46:13.690Z,21.07
2023-01-17T05:48:59.084Z,21.12
2023-01-17T05:51:44.573Z,21.17
2023-01-17T05:54:29.775Z,21.22
2023-01-17T05:57:15.923Z,21.26
2023-01-17T06:00:01.478Z,21.29
2023-01-17T06:02:47.520Z,21.32
2023-01-17T06:05:32.762Z,21.34
2023-01-17T06:08:18.216Z,21.35
2023-01-17T06:11:03.575Z,21.37
2023-01-17T06:13:49.141Z,21.41
2023-01-17T06:16:34.539Z,21.42
2023-01-17T06:19:19.828Z,21.43
2023-01-17T06:22:05.466Z,21.44
2023-01-17T06:24:51.071Z,21.40
2023-01-17T06:27:36.392Z,21.39
2023-01-17T06:30:21.842Z,21.36
2023-01-17T06:33:07.346Z,21.33
2023-01-17T06:35:53.238Z,21.29
2023-01-17T06:38:38.654Z,21.27
2023-01-17T06:41:25.890Z,21.25
2023-01-17T06:49:34.587Z,21.17
2023-01-17T06:52:19.100Z,21.15
2023-01-17T06:55:03.991Z,21.13
2023-01-17T06:57:49.950Z,21.09
2023-01-17T07:00:35.313Z,21.06
2023-01-17T07:03:25.405Z,21.05
2023-01-17T07:14:00.192Z,20.98
2023-01-17T07:16:45.392Z,20.96
2023-01-17T07:19:30.012Z,20.94
2023-01-17T07:22:15.216Z,20.93
2023-01-17T07:25:00.646Z,20.91
2023-01-17T07:27:46.322Z,20.91
2023-01-17T07:30:31.575Z,20.91
2023-01-17T07:33:17.262Z,20.93
2023-01-17T07:36:07.667Z,20.94
2023-01-17T07:38:53.156Z,20.93
2023-01-17T07:41:41.380Z,20.93
2023-01-17T07:44:27.036Z,20.92
2023-01-17T07:47:12.497Z,20.91
2023-01-17T07:49:57.730Z,20.90
2023-01-17T07:52:42.922Z,20.89
2023-01-17T07:55:28.311Z,20.87
2023-01-17T07:58:15.020Z,20.87
2023-01-17T08:01:08.753Z,20.87
2023-01-17T08:03:54.964Z,20.85
2023-01-17T08:06:43.605Z,20.85
2023-01-17T08:09:29.135Z,20.84
2023-01-17T08:12:14.452Z,20.83
2023-01-17T08:14:59.933Z,20.82
2023-01-17T08:17:49.469Z,20.81
2023-01-17T08:20:34.916Z,20.80
2023-01-17T08:23:21.104Z,20.79
2023-01-17T08:26:06.582Z,20.79
2023-01-17T08:28:57.137Z,20.77
2023-01-17T08:31:42.824Z,20.76
2023-01-17T08:34:28.129Z,20.75
2023-01-17T08:37:13.788Z,20.75
2023-01-17T08:39:58.854Z,20.75
2023-01-17T08:42:44.275Z,20.75
2023-01-17T08:45:29.976Z,20.73
2023-01-17T08:48:15.532Z,20.73
2023-01-17T08:51:02.753Z,20.72
2023-01-17T08:53:48.629Z,20.72
2023-01-17T08:56:34.098Z,20.73
2023-01-17T08:59:19.814Z,20.73
2023-01-17T09:02:14.780Z,20.74
2023-01-17T09:05:00.841Z,20.76
2023-01-17T09:07:46.237Z,20.74
2023-01-17T09:10:31.648Z,20.75
2023-01-17T09:13:16.745Z,20.75
2023-01-17T09:18:47.899Z,20.73
2023-01-17T09:21:33.088Z,20.73
2023-01-17T09:24:18.660Z,20.72
2023-01-17T09:27:04.417Z,20.72
2023-01-17T09:29:50.009Z,20.70
2023-01-17T09:32:35.335Z,20.71
2023-01-17T09:35:20.645Z,20.69
2023-01-17T09:38:06.653Z,20.69
2023-01-17T09:40:51.983Z,20.70
2023-01-17T09:43:48.351Z,20.69
2023-01-17T09:46:44.875Z,20.68
2023-01-17T09:49:47.366Z,20.67
2023-01-17T09:52:32.606Z,20.67
2023-01-17T09:55:19.387Z,20.66
2023-01-17T09:58:17.931Z,20.66
2023-01-17T10:01:06.314Z,20.65
2023-01-17T10:04:21.690Z,20.66
2023-01-17T10:07:43.514Z,20.65
2023-01-17T10:11:02.901Z,20.65
2023-01-17T10:14:03.715Z,20.63
2023-01-17T10:17:01.005Z,20.63
2023-01-17T10:20:01.456Z,20.63
2023-01-17T10:22:54.285Z,20.65
2023-01-17T10:25:43.021Z,20.64
2023-01-17T10:28:42.778Z,20.65
2023-01-17T10:31:56.873Z,20.67
2023-01-17T10:34:52.868Z,20.68
2023-01-17T10:37:44.163Z,20.67
2023-01-17T10:40:40.942Z,20.66
2023-01-17T10:43:48.735Z,20.66
2023-01-17T10:46:41.352Z,20.66
2023-01-17T10:49:28.532Z,20.65
2023-01-17T10:52:33.066Z,20.66
2023-01-17T10:55:37.432Z,20.65
2023-01-17T10:58:24.922Z,20.64
2023-01-17T11:01:19.772Z,20.63
2023-01-17T11:04:16.654Z,20.63
2023-01-17T11:07:20.348Z,20.63
2023-01-17T11:10:06.247Z,20.62
2023-01-17T11:12:52.017Z,20.61
2023-01-17T11:15:39.738Z,20.63
2023-01-17T11:18:29.144Z,20.63
2023-01-17T11:21:23.302Z,20.64
2023-01-17T11:24:12.331Z,20.64
2023-01-17T11:26:58.460Z,20.63
2023-01-17T11:29:43.571Z,20.63
2023-01-17T11:32:32.226Z,20.63
2023-01-17T11:35:45.233Z,20.62
2023-01-17T11:38:30.823Z,20.60
2023-01-17T11:41:21.954Z,20.60
2023-01-17T11:44:29.334Z,20.60
2023-01-17T11:47:19.348Z,20.60
2023-01-17T11:50:24.057Z,20.61
2023-01-17T11:53:24.495Z,20.62
2023-01-17T11:56:18.415Z,20.63
2023-01-17T11:59:17.867Z,20.62
2023-01-17T12:02:37.199Z,20.63
2023-01-17T12:05:56.499Z,20.63
2023-01-17T12:08:54.286Z,20.63
2023-01-17T12:12:30.161Z,20.63
2023-01-17T12:15:51.965Z,20.64
2023-01-17T12:18:52.567Z,20.65
2023-01-17T12:21:43.788Z,20.65
2023-01-17T12:24:47.627Z,20.65
2023-01-17T12:27:57.806Z,20.65
2023-01-17T12:31:01.730Z,20.63
2023-01-17T12:33:59.130Z,20.62
2023-01-17T12:36:57.319Z,20.61
2023-01-17T12:39:51.787Z,20.61
2023-01-17T12:42:43.176Z,20.61
2023-01-17T12:45:45.578Z,20.61
2023-01-17T12:48:36.856Z,20.61
2023-01-17T12:51:29.399Z,20.61
2023-01-17T12:54:38.440Z,20.59
2023-01-17T12:57:37.887Z,20.59
2023-01-17T13:00:29.697Z,20.59
2023-01-17T13:03:25.973Z,20.57
2023-01-17T13:06:22.190Z,20.58
2023-01-17T13:09:13.668Z,20.58
2023-01-17T13:12:06.813Z,20.57
2023-01-17T13:14:52.329Z,20.56
2023-01-17T13:17:56.385Z,20.57
2023-01-17T13:25:40.596Z,20.58
2023-01-17T13:29:25.391Z,20.59
2023-01-17T13:32:14.038Z,20.55
2023-01-17T13:35:11.444Z,20.58
2023-01-17T13:38:21.404Z,20.57
2023-01-17T13:49:46.177Z,20.59
2023-01-17T13:52:33.421Z,20.59
2023-01-17T13:55:50.887Z,20.59
2023-01-17T13:59:02.626Z,20.59
2023-01-17T14:01:52.359Z,20.58
2023-01-17T14:05:15.940Z,20.56
2023-01-17T14:08:06.133Z,20.56
2023-01-17T14:11:07.948Z,20.54
2023-01-17T14:13:55.335Z,20.53
2023-01-17T14:16:40.767Z,20.52
2023-01-17T14:19:26.947Z,20.51
2023-01-17T14:22:18.549Z,20.51
2023-01-17T14:25:10.087Z,20.50
2023-01-17T14:28:01.212Z,20.50
2023-01-17T14:30:48.690Z,20.50
2023-01-17T14:33:40.082Z,20.50
2023-01-17T14:36:33.231Z,20.49
2023-01-17T14:39:22.968Z,20.50
2023-01-17T14:42:13.527Z,20.51
2023-01-17T14:45:08.957Z,20.51
2023-01-17T14:47:56.729Z,20.54
2023-01-17T14:50:44.331Z,20.54
2023-01-17T14:53:31.455Z,20.53
2023-01-17T14:56:18.091Z,20.51
2023-01-17T14:59:13.077Z,20.51
2023-01-17T15:02:07.630Z,20.52
2023-01-17T15:04:55.387Z,20.52
2023-01-17T15:07:43.167Z,20.52
2023-01-17T15:10:31.862Z,20.51
2023-01-17T15:13:29.804Z,20.52
2023-01-17T15:16:21.304Z,20.52
2023-01-17T15:19:14.959Z,20.52
2023-01-17T15:22:00.292Z,20.52
2023-01-17T15:24:46.967Z,20.55
2023-01-17T15:27:33.075Z,20.54
2023-01-17T15:30:19.365Z,20.53
2023-01-17T15:33:04.578Z,20.53
2023-01-17T15:35:49.723Z,20.53
2023-01-17T15:38:41.046Z,20.54
2023-01-17T15:41:31.296Z,20.54
2023-01-17T15:44:31.160Z,20.54
2023-01-17T15:47:40.076Z,20.54
2023-01-17T15:50:27.960Z,20.55
2023-01-17T15:53:35.496Z,20.55
2023-01-17T15:56:32.286Z,20.57
2023-01-17T15:59:30.816Z,20.58
2023-01-17T16:02:55.870Z,20.59
2023-01-17T16:05:43.972Z,20.61
2023-01-17T16:13:09.632Z,20.60
2023-01-17T16:16:10.052Z,20.58
2023-01-17T16:19:00.331Z,20.59
2023-01-17T16:21:47.395Z,20.59
2023-01-17T16:24:31.790Z,20.60
2023-01-17T16:27:20.684Z,20.61
2023-01-17T16:30:06.489Z,20.62
2023-01-17T16:32:52.241Z,20.63
2023-01-17T16:35:39.603Z,20.65
2023-01-17T16:38:25.610Z,20.64
2023-01-17T16:41:12.387Z,20.66
2023-01-17T16:44:05.479Z,20.66
2023-01-17T16:46:50.970Z,20.64
2023-01-17T16:49:36.821Z,20.64
2023-01-17T16:52:22.156Z,20.63
2023-01-17T16:55:12.338Z,20.62
2023-01-17T16:58:00.742Z,20.61
2023-01-17T17:00:47.404Z,20.60
2023-01-17T17:03:32.976Z,20.60
2023-01-17T17:06:19.709Z,20.63
2023-01-17T17:09:05.702Z,20.64
2023-01-17T17:11:52.210Z,20.68
2023-01-17T17:17:23.172Z,20.76
2023-01-17T17:20:11.969Z,20.80
2023-01-17T17:22:57.682Z,20.84
2023-01-17T17:25:42.888Z,20.86
2023-01-17T17:28:28.344Z,20.90
2023-01-17T17:31:13.864Z,20.98
2023-01-17T17:34:00.911Z,21.04
2023-01-17T17:36:46.504Z,21.11
2023-01-17T17:39:32.139Z,21.17
2023-01-17T17:42:19.680Z,21.23
2023-01-17T17:45:05.462Z,21.26
2023-01-17T17:47:52.815Z,21.31
2023-01-17T17:50:39.128Z,21.36
2023-01-17T17:53:26.070Z,21.41
2023-01-17T17:56:12.960Z,21.45
2023-01-17T17:58:59.544Z,21.47
2023-01-17T18:01:46.149Z,21.43
2023-01-17T18:04:31.680Z,21.47
2023-01-17T18:07:17.122Z,21.47
2023-01-17T18:10:03.746Z,21.46
2023-01-17T18:12:49.463Z,21.45
2023-01-17T18:15:35.021Z,21.47
2023-01-17T18:18:54.725Z,21.45
2023-01-17T18:21:44.330Z,21.48
2023-01-17T18:24:30.364Z,21.45
2023-01-17T18:27:16.715Z,21.44
2023-01-17T18:30:04.699Z,21.47
2023-01-17T18:32:52.514Z,21.47
2023-01-17T18:35:39.717Z,21.46
2023-01-17T18:38:29.297Z,21.48
2023-01-17T18:41:25.840Z,21.49
2023-01-17T18:44:13.961Z,21.50
2023-01-17T18:47:08.323Z,21.55
2023-01-17T18:49:54.445Z,21.58
2023-01-17T18:52:40.067Z,21.57
2023-01-17T18:55:25.343Z,21.56
2023-01-17T18:58:12.433Z,21.55
2023-01-17T19:01:20.700Z,21.55
2023-01-17T19:04:07.102Z,21.56
2023-01-17T19:06:53.518Z,21.50
2023-01-17T19:09:38.864Z,21.50
2023-01-17T19:12:25.205Z,21.48
2023-01-17T19:15:10.671Z,21.45
2023-01-17T19:17:56.659Z,21.41
2023-01-17T19:20:42.453Z,21.39
2023-01-17T19:23:28.555Z,21.35
2023-01-17T19:26:20.052Z,21.29
2023-01-17T19:29:07.339Z,21.27
2023-01-17T19:31:53.771Z,21.26
2023-01-17T19:34:40.238Z,21.22
2023-01-17T19:37:27.878Z,21.17
2023-01-17T19:40:15.366Z,21.15
2023-01-17T19:43:01.918Z,21.12
2023-01-17T19:45:59.178Z,21.12
2023-01-17T19:48:45.147Z,21.10
2023-01-17T19:51:31.035Z,21.09
2023-01-17T19:54:17.117Z,21.06
2023-01-17T19:57:02.835Z,21.03
2023-01-17T19:59:49.243Z,21.01
2023-01-17T20:02:35.937Z,21.00
2023-01-17T20:05:21.217Z,20.99
2023-01-17T20:08:06.792Z,20.95
2023-01-17T20:10:52.459Z,20.93
2023-01-17T20:13:37.652Z,20.91
2023-01-17T20:16:25.211Z,20.89
2023-01-17T20:19:10.601Z,20.89
2023-01-17T20:21:55.749Z,20.86
2023-01-17T20:24:41.068Z,20.86
2023-01-17T20:27:26.701Z,20.84
2023-01-17T20:30:20.084Z,20.82
2023-01-17T20:33:05.911Z,20.81
2023-01-17T20:36:08.772Z,20.80
2023-01-17T20:38:57.119Z,20.78
2023-01-17T20:41:45.548Z,20.76
2023-01-17T20:44:32.782Z,20.75
2023-01-17T20:47:18.269Z,20.75
2023-01-17T20:50:05.452Z,20.76
2023-01-17T20:52:51.307Z,20.75
2023-01-17T20:55:37.387Z,20.72
2023-01-17T20:58:22.898Z,20.72
2023-01-17T21:01:11.043Z,20.73
2023-01-17T21:03:56.611Z,20.71
2023-01-17T21:06:42.983Z,20.71
2023-01-17T21:09:28.591Z,20.70
2023-01-17T21:12:15.989Z,20.68
2023-01-17T21:15:01.465Z,20.67
2023-01-17T21:17:46.969Z,20.67
2023-01-17T21:20:34.687Z,20.67
2023-01-17T21:23:20.234Z,20.66
2023-01-17T21:26:07.868Z,20.66
2023-01-17T21:28:54.215Z,20.64
2023-01-17T21:31:40.947Z,20.64
2023-01-17T21:34:27.669Z,20.61
2023-01-17T21:37:13.255Z,20.62
2023-01-17T21:40:00.311Z,20.60
2023-01-17T21:42:45.666Z,20.60
2023-01-17T21:45:31.968Z,20.60
2023-01-17T21:48:17.281Z,20.60
2023-01-17T21:51:07.105Z,20.58
2023-01-17T21:53:52.255Z,20.57
2023-01-17T21:56:55.986Z,20.56
2023-01-17T21:59:41.066Z,20.57
2023-01-17T22:02:26.539Z,20.55
2023-01-17T22:05:12.428Z,20.55
2023-01-17T22:08:12.637Z,20.54
2023-01-17T22:11:03.353Z,20.53
2023-01-17T22:13:49.455Z,20.54
2023-01-17T22:16:34.690Z,20.54
2023-01-17T22:19:20.098Z,20.55
2023-01-17T22:22:05.342Z,20.54
2023-01-17T22:24:50.538Z,20.54
2023-01-17T22:27:35.869Z,20.54
2023-01-17T22:30:21.227Z,20.54
2023-01-17T22:33:06.604Z,20.53
2023-01-17T22:35:59.076Z,20.53
2023-01-17T22:38:44.730Z,20.54
2023-01-17T22:41:31.221Z,20.54
2023-01-17T22:44:16.616Z,20.53
2023-01-17T22:47:02.046Z,20.53
2023-01-17T22:49:47.319Z,20.53
2023-01-17T22:52:32.967Z,20.54
2023-01-17T22:55:19.293Z,20.52
2023-01-17T22:58:04.792Z,20.52
2023-01-17T23:00:51.034Z,20.51
2023-01-17T23:03:36.811Z,20.50
2023-01-17T23:06:28.269Z,20.49
2023-01-17T23:09:15.452Z,20.48
2023-01-17T23:12:00.837Z,20.48
2023-01-17T23:15:04.887Z,20.48
2023-01-17T23:18:08.648Z,20.48
2023-01-17T23:20:53.745Z,20.47
2023-01-17T23:23:39.175Z,20.48
2023-01-17T23:26:24.524Z,20.46
2023-01-17T23:29:09.849Z,20.45
2023-01-17T23:31:55.192Z,20.44
2023-01-17T23:34:40.433Z,20.44
2023-01-17T23:37:50.451Z,20.45
2023-01-17T23:40:37.303Z,20.44
2023-01-17T23:43:25.383Z,20.43
2023-01-17T23:46:12.216Z,20.44
2023-01-17T23:48:57.670Z,20.43
2023-01-17T23:51:43.215Z,20.42
2023-01-17T23:54:28.479Z,20.43
2023-01-17T23:57:13.699Z,20.43
2023-01-17T23:59:58.974Z,20.42
